Time;durP1;ratioP1;P1;durP2;ratioP2;P2;SDS_P1;SDS_P2;PMS_P1;PMS_P2;Temp;Humidity;BMP_temperature;BMP_pressure;BME280_temperature;BME280_humidity;BME280_pressure;Samples;Min_cycle;Max_cycle;Signal;HPM_P1;HPM_P2
2024/04/20 00:00:11;;;;;;;0.57;0.30;;;5.40;99.90;;;;;;5225009;27;20305;-66
2024/04/20 00:02:37;;;;;;;0.83;0.50;;;5.40;99.90;;;;;;5240971;27;20313;-66
2024/04/20 00:05:03;;;;;;;0.47;0.47;;;5.40;99.90;;;;;;5241270;27;20237;-66
2024/04/20 00:07:29;;;;;;;0.30;0.30;;;5.40;99.90;;;;;;5240607;27;20753;-66
2024/04/20 00:09:57;;;;;;;1.03;0.70;;;5.30;99.90;;;;;;5240404;27;20253;-66
2024/04/20 00:12:23;;;;;;;0.40;0.40;;;5.30;99.90;;;;;;5241094;27;20273;-66
2024/04/20 00:14:50;;;;;;;0.60;0.50;;;5.30;99.90;;;;;;5240594;27;21132;-66
2024/04/20 00:17:16;;;;;;;0.30;0.30;;;5.30;99.90;;;;;;5240889;27;20749;-66
2024/04/20 00:19:41;;;;;;;0.87;0.40;;;5.40;99.90;;;;;;5238594;27;20238;-66
2024/04/20 00:22:07;;;;;;;0.50;0.50;;;5.40;99.90;;;;;;5228676;27;20352;-66
2024/04/20 00:24:33;;;;;;;0.33;0.30;;;5.40;99.90;;;;;;5240860;27;20233;-66
2024/04/20 00:26:58;;;;;;;0.50;0.40;;;5.30;99.90;;;;;;5267156;27;20246;-66
2024/04/20 00:29:24;;;;;;;0.33;0.33;;;5.30;99.90;;;;;;5240658;27;20246;-66
2024/04/20 00:31:50;;;;;;;0.43;0.40;;;5.30;99.90;;;;;;5239978;27;20237;-66
2024/04/20 00:34:15;;;;;;;0.63;0.50;;;5.30;99.90;;;;;;5239888;27;20660;-66
2024/04/20 00:36:41;;;;;;;0.20;0.20;;;5.30;99.90;;;;;;5239266;27;20238;-66
2024/04/20 00:39:06;;;;;;;0.20;0.20;;;5.30;99.90;;;;;;5221347;27;20239;-66
2024/04/20 00:41:32;;;;;;;0.50;0.40;;;5.30;99.90;;;;;;5233753;27;20233;-66
2024/04/20 00:43:57;;;;;;;3.13;0.83;;;5.30;99.90;;;;;;5240922;27;20327;-66
2024/04/20 00:46:26;;;;;;;0.30;0.30;;;5.30;99.90;;;;;;5240817;27;20242;-66
2024/04/20 00:48:53;;;;;;;3.70;0.40;;;5.30;99.90;;;;;;5240162;27;20241;-66
2024/04/20 00:51:20;;;;;;;0.50;0.50;;;5.30;99.90;;;;;;5266495;27;20253;-66
2024/04/20 00:53:48;;;;;;;3.87;0.93;;;5.30;99.90;;;;;;5224449;27;20611;-66
2024/04/20 00:56:14;;;;;;;0.40;0.40;;;5.30;99.90;;;;;;5229518;27;20241;-66
2024/04/20 00:58:44;;;;;;;0.50;0.50;;;5.30;99.90;;;;;;5240325;27;20238;-66
2024/04/20 01:01:10;;;;;;;0.40;0.40;;;5.30;99.90;;;;;;5239785;27;20583;-66
2024/04/20 01:03:39;;;;;;;0.40;0.40;;;5.30;99.90;;;;;;5213012;27;20289;-66
2024/04/20 01:06:05;;;;;;;0.57;0.57;;;5.30;99.90;;;;;;5227418;27;20452;-66
2024/04/20 01:08:31;;;;;;;0.50;0.50;;;5.30;99.90;;;;;;5240184;27;20238;-66
2024/04/20 01:10:57;;;;;;;1.27;0.80;;;5.30;99.90;;;;;;5225918;27;20772;-66
2024/04/20 01:13:26;;;;;;;0.40;0.40;;;5.30;99.90;;;;;;5240323;27;20237;-66
2024/04/20 01:15:52;;;;;;;1.50;0.73;;;5.30;99.90;;;;;;5226182;27;20271;-67
2024/04/20 01:18:18;;;;;;;0.90;0.50;;;5.30;99.90;;;;;;5249809;27;20241;-66
2024/04/20 01:20:44;;;;;;;0.50;0.50;;;5.20;99.90;;;;;;5229537;27;20353;-66
2024/04/20 01:23:10;;;;;;;11.03;0.93;;;5.20;99.90;;;;;;5226486;27;20296;-66
2024/04/20 01:25:41;;;;;;;0.40;0.40;;;5.10;99.90;;;;;;5240019;27;20757;-66
2024/04/20 01:28:07;;;;;;;0.20;0.20;;;5.20;99.90;;;;;;5240022;27;20246;-65
2024/04/20 01:30:32;;;;;;;1.67;1.13;;;5.20;99.90;;;;;;5265593;27;20309;-66
2024/04/20 01:32:58;;;;;;;1.07;0.60;;;5.20;99.90;;;;;;5239677;27;20253;-66
2024/04/20 01:35:24;;;;;;;1.33;1.00;;;5.20;99.90;;;;;;5240223;27;20776;-66
2024/04/20 01:37:50;;;;;;;0.57;0.53;;;5.20;99.90;;;;;;5239556;27;20234;-66
2024/04/20 01:40:15;;;;;;;1.50;1.07;;;5.20;99.90;;;;;;5239593;27;20246;-66
2024/04/20 01:42:41;;;;;;;0.67;0.47;;;5.20;99.90;;;;;;5238629;27;20233;-66
2024/04/20 01:45:07;;;;;;;0.70;0.50;;;5.20;99.90;;;;;;5220741;27;20239;-66
2024/04/20 01:47:32;;;;;;;0.60;0.60;;;5.20;99.90;;;;;;5236390;27;20237;-66
2024/04/20 01:49:58;;;;;;;1.27;0.50;;;5.20;99.90;;;;;;5228141;27;20245;-66
2024/04/20 01:52:24;;;;;;;0.50;0.40;;;5.20;99.90;;;;;;5229171;27;20238;-66
2024/04/20 01:54:49;;;;;;;0.40;0.40;;;5.20;99.90;;;;;;5239924;27;20241;-66
2024/04/20 01:57:15;;;;;;;1.10;0.73;;;5.20;99.90;;;;;;5223467;27;20691;-66
2024/04/20 01:59:40;;;;;;;0.60;0.60;;;5.10;99.90;;;;;;5237251;27;20242;-66
2024/04/20 02:02:06;;;;;;;3.27;0.70;;;5.10;99.90;;;;;;5242181;27;20237;-66
2024/04/20 02:04:31;;;;;;;0.57;0.50;;;5.10;99.90;;;;;;5242644;27;20284;-66
2024/04/20 02:06:57;;;;;;;1.07;0.70;;;5.10;99.90;;;;;;5237954;27;20293;-66
2024/04/20 02:09:23;;;;;;;0.97;0.40;;;5.10;99.90;;;;;;5233514;27;20325;-66
2024/04/20 02:11:48;;;;;;;0.37;0.33;;;5.10;99.90;;;;;;5242108;27;20297;-66
2024/04/20 02:14:15;;;;;;;2.23;1.00;;;5.00;99.90;;;;;;5242732;27;20238;-67
2024/04/20 02:16:40;;;;;;;1.53;0.63;;;5.10;99.90;;;;;;5242243;27;20680;-66
2024/04/20 02:19:06;;;;;;;1.37;0.40;;;5.10;99.90;;;;;;5242440;27;20253;-66
2024/04/20 02:21:32;;;;;;;0.60;0.60;;;5.10;99.90;;;;;;5241833;27;20249;-66
2024/04/20 02:23:57;;;;;;;0.60;0.57;;;5.00;99.90;;;;;;5242683;27;20249;-66
2024/04/20 02:26:23;;;;;;;0.93;0.73;;;5.00;99.90;;;;;;5228344;27;20435;-66
2024/04/20 02:28:48;;;;;;;3.10;1.60;;;5.00;99.90;;;;;;5240381;27;20488;-66
2024/04/20 02:31:14;;;;;;;0.93;0.60;;;5.00;99.90;;;;;;5241753;27;20237;-66
2024/04/20 02:33:40;;;;;;;1.00;0.80;;;5.00;99.90;;;;;;5242537;27;20284;-66
2024/04/20 02:36:07;;;;;;;1.43;0.93;;;5.00;99.90;;;;;;5242911;27;20668;-66
2024/04/20 02:38:32;;;;;;;1.90;0.83;;;5.00;99.90;;;;;;5242113;27;20241;-66
2024/04/20 02:40:59;;;;;;;0.40;0.40;;;5.10;99.90;;;;;;5241450;27;20276;-66
2024/04/20 02:43:24;;;;;;;0.40;0.40;;;5.00;99.90;;;;;;5242556;27;20297;-66
2024/04/20 02:45:50;;;;;;;0.67;0.60;;;4.90;99.90;;;;;;5242289;27;20833;-66
2024/04/20 02:48:16;;;;;;;0.43;0.43;;;4.90;99.90;;;;;;5233643;27;20280;-66
2024/04/20 02:50:41;;;;;;;0.83;0.50;;;5.00;99.90;;;;;;5221261;27;20251;-66
2024/04/20 02:53:07;;;;;;;0.77;0.77;;;4.90;99.90;;;;;;5242478;27;20288;-67
2024/04/20 02:55:33;;;;;;;0.73;0.57;;;5.00;99.90;;;;;;5228442;27;20245;-66
2024/04/20 02:57:58;;;;;;;0.37;0.33;;;5.00;99.90;;;;;;5241376;27;20237;-67
2024/04/20 03:00:24;;;;;;;0.47;0.40;;;5.00;99.90;;;;;;5227614;27;20238;-66
2024/04/20 03:02:49;;;;;;;2.97;0.60;;;4.90;99.90;;;;;;5241957;27;20285;-67
2024/04/20 03:05:15;;;;;;;3.40;1.13;;;4.90;99.90;;;;;;5240378;27;20280;-67
2024/04/20 03:07:41;;;;;;;0.30;0.30;;;4.90;99.90;;;;;;5226263;27;20241;-66
2024/04/20 03:10:06;;;;;;;0.87;0.40;;;4.90;99.90;;;;;;5241490;27;20253;-66
2024/04/20 03:12:32;;;;;;;0.77;0.40;;;4.90;99.90;;;;;;5242267;27;20344;-66
2024/04/20 03:14:58;;;;;;;0.47;0.43;;;4.80;99.90;;;;;;5241736;27;20590;-66
2024/04/20 03:17:23;;;;;;;3.27;0.60;;;4.80;99.90;;;;;;5268234;27;20808;-66
2024/04/20 03:19:51;;;;;;;0.97;0.67;;;4.80;99.90;;;;;;5238188;27;20246;-66
2024/04/20 03:22:16;;;;;;;0.90;0.30;;;4.90;99.90;;;;;;5229759;27;20364;-66
2024/04/20 03:24:42;;;;;;;0.93;0.53;;;4.80;99.90;;;;;;5241528;27;20275;-66
2024/04/20 03:27:07;;;;;;;0.50;0.50;;;4.80;99.90;;;;;;5241494;27;20325;-67
2024/04/20 03:29:33;;;;;;;0.60;0.60;;;4.80;99.90;;;;;;5241763;27;20238;-66
2024/04/20 03:31:59;;;;;;;0.20;0.20;;;4.70;99.90;;;;;;5240698;27;20289;-67
2024/04/20 03:34:24;;;;;;;0.57;0.57;;;4.70;99.90;;;;;;5241572;27;20274;-66
2024/04/20 03:36:50;;;;;;;3.33;0.50;;;4.80;99.90;;;;;;5241553;27;20241;-67
2024/04/20 03:39:16;;;;;;;0.50;0.50;;;4.80;99.90;;;;;;5232856;27;20243;-66
2024/04/20 03:41:45;;;;;;;1.10;0.70;;;4.80;99.90;;;;;;5222054;27;20600;-67
2024/04/20 03:44:13;;;;;;;0.30;0.30;;;4.80;99.90;;;;;;5227958;27;20285;-66
2024/04/20 03:46:39;;;;;;;0.50;0.50;;;4.90;99.90;;;;;;5240842;27;20242;-67
2024/04/20 03:49:05;;;;;;;0.30;0.30;;;4.90;99.90;;;;;;5241266;27;20738;-67
2024/04/20 03:51:31;;;;;;;0.67;0.57;;;4.90;99.90;;;;;;5267172;27;20764;-66
2024/04/20 03:53:59;;;;;;;1.20;0.50;;;4.90;99.90;;;;;;5241168;27;20242;-67
2024/04/20 03:56:25;;;;;;;0.70;0.60;;;4.80;99.90;;;;;;5241006;27;20569;-66
2024/04/20 03:58:51;;;;;;;0.40;0.40;;;4.80;99.90;;;;;;5264687;27;20275;-67
2024/04/20 04:01:17;;;;;;;1.30;0.73;;;4.80;99.90;;;;;;5229893;27;20286;-66
2024/04/20 04:03:43;;;;;;;1.43;0.70;;;4.80;99.90;;;;;;5241024;27;20730;-66
2024/04/20 04:06:08;;;;;;;0.30;0.30;;;4.80;99.90;;;;;;5241199;27;20280;-67
2024/04/20 04:08:34;;;;;;;0.43;0.40;;;4.80;99.90;;;;;;5239748;27;20249;-65
2024/04/20 04:11:00;;;;;;;0.40;0.30;;;4.80;99.90;;;;;;5240464;27;20292;-65
2024/04/20 04:13:26;;;;;;;0.50;0.50;;;4.80;99.90;;;;;;5267199;27;20261;-65
2024/04/20 04:15:52;;;;;;;0.53;0.40;;;4.90;99.90;;;;;;5226905;27;20233;-65
2024/04/20 04:18:17;;;;;;;0.60;0.47;;;4.80;99.90;;;;;;5240925;27;20695;-65
2024/04/20 04:20:43;;;;;;;1.53;0.67;;;4.80;99.90;;;;;;5239874;27;20288;-65
2024/04/20 04:23:08;;;;;;;0.70;0.70;;;4.80;99.90;;;;;;5241005;27;20289;-65
2024/04/20 04:25:37;;;;;;;0.83;0.83;;;4.80;99.90;;;;;;5241082;27;20642;-65
2024/04/20 04:28:03;;;;;;;0.50;0.50;;;4.70;99.90;;;;;;5240272;27;20237;-65
2024/04/20 04:30:28;;;;;;;0.50;0.50;;;4.70;99.90;;;;;;5238538;27;20234;-65
2024/04/20 04:32:54;;;;;;;0.60;0.57;;;4.70;99.90;;;;;;5208480;27;20239;-66
2024/04/20 04:35:19;;;;;;;0.70;0.50;;;4.70;99.90;;;;;;5229477;27;20447;-65
2024/04/20 04:37:45;;;;;;;0.60;0.60;;;4.70;99.90;;;;;;5239491;27;20237;-65
2024/04/20 04:40:11;;;;;;;1.97;0.83;;;4.60;99.90;;;;;;5238947;27;20294;-65
2024/04/20 04:42:36;;;;;;;1.37;0.50;;;4.60;99.90;;;;;;5239716;27;20234;-65
2024/04/20 04:45:06;;;;;;;0.33;0.33;;;4.60;99.90;;;;;;5239744;27;20237;-65
2024/04/20 04:47:32;;;;;;;0.50;0.50;;;4.60;99.90;;;;;;5239809;27;20237;-65
2024/04/20 04:49:58;;;;;;;0.23;0.23;;;4.60;99.90;;;;;;5264770;27;20296;-66
2024/04/20 04:52:23;;;;;;;0.50;0.50;;;4.60;99.90;;;;;;5239636;27;20344;-65
2024/04/20 04:54:49;;;;;;;0.40;0.40;;;4.60;99.90;;;;;;5225482;27;20276;-65
2024/04/20 04:57:14;;;;;;;0.63;0.50;;;4.70;99.90;;;;;;5239675;27;20625;-66
2024/04/20 04:59:42;;;;;;;0.77;0.63;;;4.70;99.90;;;;;;5239136;27;20379;-66
2024/04/20 05:02:08;;;;;;;0.70;0.60;;;4.70;99.90;;;;;;5239572;27;20288;-65
2024/04/20 05:04:34;;;;;;;2.07;0.80;;;4.70;99.90;;;;;;5239390;27;20580;-65
2024/04/20 05:07:00;;;;;;;0.40;0.40;;;4.70;99.90;;;;;;5239015;27;20297;-66
2024/04/20 05:09:25;;;;;;;1.10;0.60;;;4.70;99.90;;;;;;5239210;27;20351;-65
2024/04/20 05:11:51;;;;;;;0.40;0.40;;;4.80;99.90;;;;;;5238448;27;20300;-65
2024/04/20 05:14:17;;;;;;;0.40;0.37;;;4.80;99.90;;;;;;5230852;27;20326;-66
2024/04/20 05:16:42;;;;;;;0.83;0.60;;;4.70;99.90;;;;;;5226576;27;20238;-65
2024/04/20 05:19:08;;;;;;;2.03;1.10;;;4.80;99.90;;;;;;5225910;27;20603;-65
2024/04/20 05:21:33;;;;;;;0.70;0.67;;;4.80;99.90;;;;;;5238485;27;20780;-65
2024/04/20 05:24:02;;;;;;;0.53;0.47;;;5.00;99.90;;;;;;5238918;27;20296;-65
2024/04/20 05:26:28;;;;;;;0.97;0.87;;;5.00;99.90;;;;;;5239320;27;20246;-65
2024/04/20 05:28:54;;;;;;;1.13;1.03;;;5.10;99.90;;;;;;5238637;27;20245;-66
2024/04/20 05:31:19;;;;;;;0.63;0.63;;;5.00;99.90;;;;;;5238341;27;20738;-65
2024/04/20 05:33:45;;;;;;;0.53;0.43;;;5.00;99.90;;;;;;5237509;27;20717;-66
2024/04/20 05:36:11;;;;;;;0.87;0.70;;;5.00;99.90;;;;;;5252768;27;20328;-65
2024/04/20 05:38:36;;;;;;;0.93;0.60;;;5.00;99.90;;;;;;5224821;27;20289;-65
2024/04/20 05:41:03;;;;;;;0.60;0.50;;;5.00;99.90;;;;;;5231219;27;20273;-65
2024/04/20 05:43:29;;;;;;;0.57;0.40;;;5.10;99.90;;;;;;5230659;27;20242;-65
2024/04/20 05:45:54;;;;;;;0.30;0.30;;;5.10;99.90;;;;;;5237166;27;20233;-65
2024/04/20 05:48:20;;;;;;;2.20;0.93;;;5.20;99.90;;;;;;5238598;27;20848;-65
2024/04/20 05:50:45;;;;;;;0.77;0.50;;;5.30;99.90;;;;;;5237762;27;20249;-65
2024/04/20 05:53:12;;;;;;;16.10;0.67;;;5.40;99.90;;;;;;5238600;27;20771;-65
2024/04/20 05:55:37;;;;;;;1.13;0.73;;;5.50;99.90;;;;;;5238321;27;20246;-65
2024/04/20 05:58:03;;;;;;;2.83;0.90;;;5.60;99.90;;;;;;5238214;27;20340;-66
2024/04/20 06:00:29;;;;;;;0.73;0.50;;;5.80;99.90;;;;;;5237566;27;20238;-66
2024/04/20 06:02:54;;;;;;;0.70;0.43;;;5.80;99.90;;;;;;5238380;27;20272;-66
2024/04/20 06:05:20;;;;;;;0.47;0.47;;;6.00;99.90;;;;;;5229257;27;20277;-66
2024/04/20 06:07:45;;;;;;;0.60;0.60;;;6.10;99.90;;;;;;5259771;27;20289;-66
2024/04/20 06:10:11;;;;;;;1.27;1.00;;;6.00;99.90;;;;;;5235778;27;20269;-66
2024/04/20 06:12:37;;;;;;;0.33;0.33;;;6.10;99.90;;;;;;5264425;27;20241;-65
2024/04/20 06:15:03;;;;;;;3.63;0.87;;;6.00;99.90;;;;;;5238200;27;20230;-65
2024/04/20 06:17:29;;;;;;;2.03;1.03;;;6.10;99.90;;;;;;5238016;27;20272;-66
2024/04/20 06:19:55;;;;;;;1.10;0.57;;;6.10;99.90;;;;;;5237073;27;20562;-66
2024/04/20 06:22:20;;;;;;;0.43;0.43;;;6.10;99.90;;;;;;5224644;27;20622;-66
2024/04/20 06:24:48;;;;;;;0.70;0.50;;;6.10;99.90;;;;;;5223981;27;20287;-66
2024/04/20 06:27:13;;;;;;;1.30;0.90;;;6.20;99.90;;;;;;5237690;27;20267;-66
2024/04/20 06:29:39;;;;;;;0.50;0.40;;;6.20;99.90;;;;;;5237860;27;20241;-65
2024/04/20 06:32:05;;;;;;;0.77;0.73;;;6.40;99.90;;;;;;5238647;27;20629;-65
2024/04/20 06:34:31;;;;;;;0.40;0.40;;;6.50;99.90;;;;;;5241526;27;20238;-66
2024/04/20 06:36:57;;;;;;;1.23;1.10;;;6.70;99.90;;;;;;5241365;27;20242;-65
2024/04/20 06:39:22;;;;;;;0.70;0.53;;;6.90;99.90;;;;;;5241144;27;20670;-66
2024/04/20 06:41:48;;;;;;;6.30;2.10;;;7.00;99.90;;;;;;5240476;27;20238;-66
2024/04/20 06:44:14;;;;;;;1.13;0.83;;;7.30;99.90;;;;;;5241247;27;20335;-66
2024/04/20 06:46:40;;;;;;;1.80;0.90;;;7.40;99.90;;;;;;5241038;27;20234;-65
2024/04/20 06:49:05;;;;;;;1.30;0.83;;;7.70;99.90;;;;;;5241142;27;20293;-66
2024/04/20 06:51:31;;;;;;;2.10;0.90;;;7.80;99.90;;;;;;5252901;27;20245;-65
2024/04/20 06:53:56;;;;;;;1.20;0.67;;;8.00;99.90;;;;;;5241185;27;20250;-65
2024/04/20 06:56:23;;;;;;;0.80;0.57;;;8.20;99.90;;;;;;5241390;27;20288;-66
2024/04/20 06:58:49;;;;;;;1.00;0.70;;;8.10;99.90;;;;;;5240703;27;20241;-65
2024/04/20 07:01:15;;;;;;;0.77;0.60;;;8.30;99.90;;;;;;5240089;27;20232;-66
2024/04/20 07:03:41;;;;;;;1.03;0.67;;;8.60;99.90;;;;;;5267520;27;20269;-66
2024/04/20 07:06:06;;;;;;;2.97;0.73;;;8.80;99.90;;;;;;5227103;27;20280;-66
2024/04/20 07:08:32;;;;;;;0.93;0.63;;;8.90;99.90;;;;;;5240543;27;20679;-67
2024/04/20 07:10:59;;;;;;;1.27;1.00;;;9.00;99.90;;;;;;5240070;27;20238;-65
2024/04/20 07:13:27;;;;;;;0.77;0.50;;;9.30;99.90;;;;;;5217031;27;20239;-66
2024/04/20 07:15:53;;;;;;;0.60;0.50;;;9.40;99.90;;;;;;5223617;27;20479;-65
2024/04/20 07:18:18;;;;;;;0.70;0.70;;;9.90;99.90;;;;;;5227255;27;20246;-66
2024/04/20 07:20:44;;;;;;;0.70;0.40;;;10.00;99.90;;;;;;5239740;27;20305;-67
2024/04/20 07:23:10;;;;;;;2.03;0.83;;;9.90;99.90;;;;;;5240612;27;20229;-65
2024/04/20 07:25:36;;;;;;;0.47;0.30;;;9.80;99.90;;;;;;5240465;27;20237;-66
2024/04/20 07:28:02;;;;;;;0.67;0.67;;;9.70;99.90;;;;;;5240136;27;20750;-66
2024/04/20 07:30:27;;;;;;;4.33;0.70;;;9.40;99.90;;;;;;5229334;27;20346;-66
2024/04/20 07:32:53;;;;;;;4.37;1.63;;;9.50;99.90;;;;;;5232989;27;20238;-66
2024/04/20 07:35:18;;;;;;;1.43;0.87;;;9.40;99.90;;;;;;5229729;27;20286;-66
2024/04/20 07:37:44;;;;;;;1.60;0.73;;;9.20;99.90;;;;;;5240249;27;20234;-66
2024/04/20 07:40:10;;;;;;;0.87;0.60;;;8.90;99.90;;;;;;5239625;27;20242;-65
2024/04/20 07:42:35;;;;;;;0.60;0.50;;;8.80;99.90;;;;;;5226635;27;20628;-66
2024/04/20 07:45:01;;;;;;;1.23;0.77;;;9.00;99.90;;;;;;5240251;27;20284;-65
2024/04/20 07:47:27;;;;;;;0.87;0.87;;;8.80;99.90;;;;;;5239504;27;20249;-67
2024/04/20 07:49:52;;;;;;;2.20;0.80;;;8.70;99.90;;;;;;5222656;27;20246;-65
2024/04/20 07:52:18;;;;;;;1.43;0.80;;;8.60;99.90;;;;;;5235907;27;20242;-66
2024/04/20 07:54:43;;;;;;;1.10;0.83;;;8.40;99.90;;;;;;5236897;27;21059;-66
2024/04/20 07:57:09;;;;;;;1.23;0.77;;;8.40;99.90;;;;;;5237689;27;20276;-67
2024/04/20 07:59:35;;;;;;;3.43;0.87;;;8.40;99.90;;;;;;5237274;27;20292;-66
2024/04/20 08:02:02;;;;;;;0.60;0.30;;;8.30;99.90;;;;;;5236427;27;20241;-66
2024/04/20 08:04:27;;;;;;;2.60;1.07;;;8.60;99.90;;;;;;5229004;27;20278;-66
2024/04/20 08:06:54;;;;;;;0.50;0.40;;;8.60;99.90;;;;;;5236609;27;20297;-67
2024/04/20 08:09:20;;;;;;;0.60;0.50;;;8.60;99.90;;;;;;5239522;27;20628;-66
2024/04/20 08:11:46;;;;;;;1.27;0.50;;;8.80;99.90;;;;;;5239422;27;20234;-66
2024/04/20 08:14:12;;;;;;;0.93;0.60;;;8.80;99.90;;;;;;5240035;27;20798;-66
2024/04/20 08:16:37;;;;;;;1.20;0.50;;;9.00;99.90;;;;;;5225115;27;20239;-67
2024/04/20 08:19:04;;;;;;;1.57;0.77;;;9.30;99.90;;;;;;5209661;27;20246;-65
2024/04/20 08:21:29;;;;;;;1.70;1.00;;;9.80;99.90;;;;;;5239316;27;20781;-66
2024/04/20 08:23:55;;;;;;;0.30;0.30;;;9.90;99.90;;;;;;5239891;27;20289;-65
2024/04/20 08:26:21;;;;;;;0.77;0.50;;;10.30;99.90;;;;;;5239935;27;20230;-65
2024/04/20 08:28:46;;;;;;;0.50;0.40;;;10.50;99.90;;;;;;5238189;27;20284;-66
2024/04/20 08:31:12;;;;;;;1.07;0.60;;;10.70;99.90;;;;;;5226579;27;20234;-66
2024/04/20 08:33:37;;;;;;;7.30;0.57;;;10.50;99.90;;;;;;5239850;27;20297;-66
2024/04/20 08:36:03;;;;;;;1.30;0.40;;;10.50;99.90;;;;;;5239203;27;20317;-66
2024/04/20 08:38:28;;;;;;;1.70;1.07;;;10.40;99.90;;;;;;5251940;27;20249;-66
2024/04/20 08:40:59;;;;;;;2.20;0.67;;;10.40;99.90;;;;;;5238645;27;20859;-66
2024/04/20 08:43:28;;;;;;;0.30;0.30;;;10.10;99.90;;;;;;5239727;27;20234;-65
2024/04/20 08:45:56;;;;;;;0.50;0.50;;;9.90;99.90;;;;;;5265543;27;20341;-66
2024/04/20 08:48:23;;;;;;;1.20;0.60;;;9.80;99.90;;;;;;5239301;27;20632;-66
2024/04/20 08:50:49;;;;;;;0.70;0.50;;;9.70;99.90;;;;;;5237395;27;20690;-66
2024/04/20 08:53:18;;;;;;;1.37;1.03;;;9.90;99.90;;;;;;5239257;27;20309;-67
2024/04/20 08:55:47;;;;;;;3.33;1.63;;;10.30;99.90;;;;;;5238332;27;20287;-66
2024/04/20 08:58:13;;;;;;;0.50;0.50;;;10.70;99.90;;;;;;5230944;27;20251;-66
2024/04/20 09:00:41;;;;;;;0.60;0.50;;;11.10;99.90;;;;;;5232045;27;20238;-66
2024/04/20 09:03:07;;;;;;;0.40;0.40;;;11.40;99.90;;;;;;5239018;27;20285;-66
2024/04/20 09:05:33;;;;;;;0.53;0.40;;;11.30;99.90;;;;;;5239321;27;20242;-66
2024/04/20 09:08:00;;;;;;;0.67;0.43;;;11.00;99.90;;;;;;5238762;27;20230;-67
2024/04/20 09:10:26;;;;;;;0.50;0.50;;;10.80;99.90;;;;;;5238715;27;20324;-66
2024/04/20 09:12:51;;;;;;;0.43;0.40;;;10.40;99.90;;;;;;5239224;27;20949;-66
2024/04/20 09:15:20;;;;;;;3.33;0.80;;;10.10;99.90;;;;;;5239338;27;20237;-67
2024/04/20 09:17:45;;;;;;;2.33;1.10;;;9.80;99.90;;;;;;5238627;27;20288;-66
2024/04/20 09:20:12;;;;;;;1.30;0.53;;;9.60;99.90;;;;;;5232336;27;20239;-66
2024/04/20 09:22:38;;;;;;;2.90;0.80;;;9.30;99.90;;;;;;5232510;27;20672;-66
2024/04/20 09:25:05;;;;;;;1.13;0.50;;;9.10;99.90;;;;;;5238996;27;20337;-67
2024/04/20 09:27:32;;;;;;;0.57;0.53;;;9.00;99.90;;;;;;5225348;27;20332;-66
2024/04/20 09:30:03;;;;;;;4.50;0.70;;;9.10;99.90;;;;;;5224406;27;20360;-66
2024/04/20 09:32:30;;;;;;;3.13;1.17;;;9.40;99.90;;;;;;5237430;27;20376;-65
2024/04/20 09:34:56;;;;;;;0.93;0.53;;;10.40;99.90;;;;;;5238811;27;20234;-66
2024/04/20 09:37:22;;;;;;;5.33;0.80;;;11.40;99.90;;;;;;5238632;27;20287;-66
2024/04/20 09:39:47;;;;;;;2.23;1.13;;;11.80;99.90;;;;;;5237957;27;20277;-66
2024/04/20 09:42:16;;;;;;;7.57;1.23;;;12.20;99.90;;;;;;5218500;27;20235;-66
2024/04/20 09:44:43;;;;;;;1.90;1.13;;;12.50;99.90;;;;;;5233035;27;20644;-66
2024/04/20 09:47:11;;;;;;;0.37;0.37;;;12.50;99.90;;;;;;5238805;27;20238;-67
2024/04/20 09:49:40;;;;;;;1.53;0.50;;;12.20;99.90;;;;;;5224061;27;20350;-66
2024/04/20 09:52:09;;;;;;;0.90;0.70;;;11.50;99.90;;;;;;5251198;27;20698;-65
2024/04/20 09:54:48;;;;;;;0.80;0.60;;;11.20;99.90;;;;;;5238201;27;20242;-67
2024/04/20 09:57:16;;;;;;;0.70;0.50;;;10.60;99.90;;;;;;5239153;27;20766;-67
2024/04/20 09:59:42;;;;;;;0.60;0.43;;;10.30;99.90;;;;;;5265106;27;20242;-67
2024/04/20 10:02:09;;;;;;;0.80;0.60;;;9.80;99.90;;;;;;5238789;27;20303;-67
2024/04/20 10:04:36;;;;;;;0.63;0.53;;;9.40;99.90;;;;;;5238511;27;20301;-67
2024/04/20 10:07:02;;;;;;;1.33;0.30;;;9.10;99.90;;;;;;5235533;27;20280;-68
2024/04/20 10:09:29;;;;;;;0.30;0.30;;;8.90;99.90;;;;;;5232525;27;20305;-67
2024/04/20 10:11:55;;;;;;;1.07;0.57;;;8.80;99.90;;;;;;5240920;27;20397;-69
2024/04/20 10:14:21;;;;;;;1.07;0.57;;;8.80;99.90;;;;;;5228221;27;20598;-67
2024/04/20 10:16:47;;;;;;;0.87;0.60;;;8.80;99.90;;;;;;5240617;27;20234;-67
2024/04/20 10:19:17;;;;;;;0.50;0.30;;;8.90;99.90;;;;;;5221896;27;20697;-66
2024/04/20 10:21:44;;;;;;;0.30;0.30;;;9.20;99.90;;;;;;5240451;27;20347;-67
2024/04/20 10:24:10;;;;;;;0.40;0.40;;;9.40;99.90;;;;;;5225572;27;20312;-68
2024/04/20 10:26:35;;;;;;;0.53;0.30;;;9.50;99.90;;;;;;5240263;27;20237;-68
2024/04/20 10:29:08;;;;;;;1.33;0.77;;;9.60;99.90;;;;;;5241744;27;20257;-68
2024/04/20 10:31:34;;;;;;;0.60;0.60;;;9.70;99.90;;;;;;5240772;27;20277;-67
2024/04/20 10:34:00;;;;;;;0.57;0.30;;;9.90;99.90;;;;;;5241656;27;20234;-68
2024/04/20 10:36:26;;;;;;;0.20;0.20;;;10.10;99.90;;;;;;5241614;27;20831;-67
2024/04/20 10:39:05;;;;;;;2.27;0.30;;;10.50;99.90;;;;;;5241658;27;20292;-68
2024/04/20 10:41:38;;;;;;;2.40;0.40;;;10.90;99.90;;;;;;5240925;27;20678;-66
2024/04/20 10:44:14;;;;;;;0.40;0.40;;;11.00;99.90;;;;;;5241536;27;20347;-66
2024/04/20 10:46:55;;;;;;;0.40;0.33;;;11.50;99.90;;;;;;5227116;27;20817;-67
2024/04/20 10:49:21;;;;;;;0.50;0.50;;;11.70;99.90;;;;;;5230477;27;20335;-67
2024/04/20 10:51:54;;;;;;;5.27;0.43;;;12.10;99.90;;;;;;5241053;27;20233;-66
2024/04/20 10:54:20;;;;;;;0.20;0.20;;;12.40;99.90;;;;;;5233192;27;20280;-68
2024/04/20 10:56:49;;;;;;;1.87;0.60;;;12.80;99.90;;;;;;5236150;27;20275;-68
2024/04/20 10:59:15;;;;;;;0.77;0.30;;;12.90;99.90;;;;;;5241562;27;20749;-66
2024/04/20 11:01:43;;;;;;;0.70;0.40;;;12.80;99.90;;;;;;5266889;27;20328;-66
2024/04/20 11:04:08;;;;;;;0.30;0.30;;;12.90;99.90;;;;;;5227523;27;20297;-66
2024/04/20 11:06:34;;;;;;;0.50;0.40;;;12.70;99.90;;;;;;5227598;27;20358;-67
2024/04/20 11:09:09;;;;;;;0.90;0.50;;;12.70;99.90;;;;;;5240764;27;20288;-69
2024/04/20 11:11:34;;;;;;;0.30;0.30;;;12.60;99.90;;;;;;5240658;27;20241;-67
2024/04/20 11:14:00;;;;;;;0.60;0.30;;;12.40;99.90;;;;;;5263673;27;20241;-69
2024/04/20 11:16:30;;;;;;;0.70;0.50;;;12.20;99.90;;;;;;5231043;27;20234;-67
2024/04/20 11:18:55;;;;;;;0.57;0.37;;;12.00;99.90;;;;;;5240327;27;20307;-68
2024/04/20 11:21:21;;;;;;;0.30;0.30;;;11.80;99.90;;;;;;5240222;27;20242;-63
2024/04/20 11:23:47;;;;;;;0.37;0.30;;;11.70;99.90;;;;;;5241072;27;20297;-65
2024/04/20 11:26:12;;;;;;;0.30;0.30;;;11.80;99.90;;;;;;5240871;27;20293;-65
2024/04/20 11:28:40;;;;;;;0.40;0.40;;;11.50;99.90;;;;;;5228345;27;20294;-67
2024/04/20 11:31:07;;;;;;;0.30;0.30;;;11.40;99.90;;;;;;5234663;27;20231;-65
2024/04/20 11:33:32;;;;;;;0.20;0.20;;;11.40;99.90;;;;;;5232824;27;20726;-65
2024/04/20 11:35:59;;;;;;;0.23;0.20;;;11.50;99.90;;;;;;5226211;27;20273;-65
2024/04/20 11:38:25;;;;;;;0.50;0.30;;;11.80;99.90;;;;;;5217417;27;20289;-67
2024/04/20 11:40:52;;;;;;;0.40;0.37;;;11.90;99.90;;;;;;5235705;27;20695;-67
2024/04/20 11:43:24;;;;;;;2.20;0.60;;;12.10;99.90;;;;;;5240974;27;20683;-65
2024/04/20 11:45:53;;;;;;;0.33;0.33;;;12.30;99.90;;;;;;5240291;27;20229;-65
2024/04/20 11:48:29;;;;;;;1.13;0.33;;;12.30;99.90;;;;;;5232789;27;20243;-66
2024/04/20 11:51:02;;;;;;;0.77;0.40;;;12.20;99.90;;;;;;5236645;27;20279;-65
2024/04/20 11:56:23;;;;;;;1.33;0.47;;;12.00;99.90;;;;;;5229563;27;20277;-67
2024/04/20 11:58:52;;;;;;;0.40;0.30;;;11.90;99.90;;;;;;5240188;27;20238;-66
2024/04/20 12:01:18;;;;;;;0.33;0.27;;;11.60;99.90;;;;;;5239675;27;20238;-66
2024/04/20 12:03:47;;;;;;;0.53;0.27;;;11.70;99.90;;;;;;5240582;27;20288;-65
2024/04/20 12:06:13;;;;;;;3.30;0.40;;;11.70;99.90;;;;;;5227822;27;20344;-66
2024/04/20 12:08:41;;;;;;;0.50;0.40;;;11.60;99.90;;;;;;5240114;27;20625;-65
2024/04/20 12:11:07;;;;;;;0.20;0.20;;;11.80;99.90;;;;;;5226036;27;20242;-68
2024/04/20 12:13:35;;;;;;;0.23;0.20;;;11.90;99.90;;;;;;5266386;27;20272;-67
2024/04/20 12:16:01;;;;;;;1.70;0.70;;;11.90;99.90;;;;;;5239926;27;20609;-65
2024/04/20 12:18:26;;;;;;;0.40;0.30;;;11.70;99.90;;;;;;5240264;27;20284;-64
2024/04/20 12:20:52;;;;;;;0.20;0.20;;;11.40;99.90;;;;;;5211762;27;20239;-66
2024/04/20 12:23:17;;;;;;;0.63;0.40;;;11.30;99.90;;;;;;5240805;27;20671;-65
2024/04/20 12:25:49;;;;;;;0.40;0.37;;;11.50;99.90;;;;;;5226811;27;20302;-66
2024/04/20 12:28:16;;;;;;;0.40;0.23;;;11.70;99.90;;;;;;5246727;27;20246;-65
2024/04/20 12:30:42;;;;;;;0.23;0.23;;;11.70;99.90;;;;;;5231688;27;20316;-65
2024/04/20 12:33:07;;;;;;;0.20;0.20;;;11.70;99.90;;;;;;5239507;27;20234;-65
2024/04/20 12:35:37;;;;;;;0.40;0.40;;;11.70;99.90;;;;;;5239718;27;20271;-65
2024/04/20 12:38:04;;;;;;;0.43;0.30;;;11.60;99.90;;;;;;5235546;27;20293;-65
2024/04/20 12:40:30;;;;;;;0.40;0.30;;;11.30;99.90;;;;;;5229650;27;20690;-66
2024/04/20 12:42:55;;;;;;;0.87;0.60;;;11.20;99.90;;;;;;5210518;27;20273;-64
2024/04/20 12:45:23;;;;;;;3.40;0.50;;;11.30;99.90;;;;;;5239675;27;20238;-65
2024/04/20 12:47:49;;;;;;;0.97;0.83;;;11.70;99.90;;;;;;5237353;27;20622;-65
2024/04/20 12:50:18;;;;;;;1.53;0.90;;;11.80;99.90;;;;;;5239346;27;20245;-65
2024/04/20 12:52:44;;;;;;;4.83;2.27;;;12.00;99.90;;;;;;5226117;27;20239;-65